sensor_id;sensor_type;location;lat;lon;timestamp;P1;durP1;ratioP1;P2;durP2;ratioP2
2674;SDS011;1347;42.122;24.746;2023-02-24T00:01:37;20.90;;;10.47;;
2674;SDS011;1347;42.122;24.746;2023-02-24T00:04:05;18.03;;;11.73;;
2674;SDS011;1347;42.122;24.746;2023-02-24T00:06:34;24.50;;;12.23;;
2674;SDS011;1347;42.122;24.746;2023-02-24T00:09:03;15.27;;;10.83;;
2674;SDS011;1347;42.122;24.746;2023-02-24T00:11:33;13.50;;;11.10;;
2674;SDS011;1347;42.122;24.746;2023-02-24T00:14:01;17.47;;;13.00;;
2674;SDS011;1347;42.122;24.746;2023-02-24T00:16:30;16.70;;;11.13;;
2674;SDS011;1347;42.122;24.746;2023-02-24T00:18:58;22.30;;;11.80;;
2674;SDS011;1347;42.122;24.746;2023-02-24T00:21:25;18.90;;;13.63;;
2674;SDS011;1347;42.122;24.746;2023-02-24T00:23:53;21.97;;;14.40;;
2674;SDS011;1347;42.122;24.746;2023-02-24T00:26:20;25.33;;;16.70;;
2674;SDS011;1347;42.122;24.746;2023-02-24T00:28:47;23.80;;;16.07;;
2674;SDS011;1347;42.122;24.746;2023-02-24T00:31:16;20.53;;;16.20;;
2674;SDS011;1347;42.122;24.746;2023-02-24T00:33:44;22.50;;;15.07;;
2674;SDS011;1347;42.122;24.746;2023-02-24T00:36:12;24.33;;;15.60;;
2674;SDS011;1347;42.122;24.746;2023-02-24T00:38:43;18.00;;;14.20;;
2674;SDS011;1347;42.122;24.746;2023-02-24T00:41:12;18.97;;;12.23;;
2674;SDS011;1347;42.122;24.746;2023-02-24T00:43:40;18.50;;;13.30;;
2674;SDS011;1347;42.122;24.746;2023-02-24T00:46:11;22.50;;;14.73;;
2674;SDS011;1347;42.122;24.746;2023-02-24T00:48:43;23.30;;;15.13;;
2674;SDS011;1347;42.122;24.746;2023-02-24T00:51:11;20.70;;;14.50;;
2674;SDS011;1347;42.122;24.746;2023-02-24T00:53:40;18.97;;;15.60;;
2674;SDS011;1347;42.122;24.746;2023-02-24T00:56:08;21.60;;;15.17;;
2674;SDS011;1347;42.122;24.746;2023-02-24T00:58:37;24.63;;;15.47;;
2674;SDS011;1347;42.122;24.746;2023-02-24T01:01:04;19.90;;;15.40;;
2674;SDS011;1347;42.122;24.746;2023-02-24T01:03:37;23.17;;;13.63;;
2674;SDS011;1347;42.122;24.746;2023-02-24T01:06:06;24.87;;;12.70;;
2674;SDS011;1347;42.122;24.746;2023-02-24T01:08:33;17.60;;;13.33;;
2674;SDS011;1347;42.122;24.746;2023-02-24T01:11:01;21.07;;;13.33;;
2674;SDS011;1347;42.122;24.746;2023-02-24T01:13:46;20.53;;;13.27;;
2674;SDS011;1347;42.122;24.746;2023-02-24T01:16:13;21.27;;;15.70;;
2674;SDS011;1347;42.122;24.746;2023-02-24T01:18:43;18.57;;;14.47;;
2674;SDS011;1347;42.122;24.746;2023-02-24T01:21:12;24.77;;;13.60;;
2674;SDS011;1347;42.122;24.746;2023-02-24T01:23:40;18.30;;;11.83;;
2674;SDS011;1347;42.122;24.746;2023-02-24T01:26:07;20.13;;;12.37;;
2674;SDS011;1347;42.122;24.746;2023-02-24T01:28:34;27.73;;;13.27;;
2674;SDS011;1347;42.122;24.746;2023-02-24T01:31:01;17.83;;;13.57;;
2674;SDS011;1347;42.122;24.746;2023-02-24T01:33:30;18.00;;;13.33;;
2674;SDS011;1347;42.122;24.746;2023-02-24T01:36:06;21.17;;;11.77;;
2674;SDS011;1347;42.122;24.746;2023-02-24T01:38:35;17.07;;;11.57;;
2674;SDS011;1347;42.122;24.746;2023-02-24T01:41:03;17.77;;;11.53;;
2674;SDS011;1347;42.122;24.746;2023-02-24T01:43:32;14.60;;;9.93;;
2674;SDS011;1347;42.122;24.746;2023-02-24T01:46:20;17.50;;;10.70;;
2674;SDS011;1347;42.122;24.746;2023-02-24T01:48:48;21.53;;;9.30;;
2674;SDS011;1347;42.122;24.746;2023-02-24T01:51:15;18.77;;;9.70;;
2674;SDS011;1347;42.122;24.746;2023-02-24T01:53:44;15.70;;;9.27;;
2674;SDS011;1347;42.122;24.746;2023-02-24T01:56:12;20.90;;;10.53;;
2674;SDS011;1347;42.122;24.746;2023-02-24T01:58:39;13.03;;;8.60;;
2674;SDS011;1347;42.122;24.746;2023-02-24T02:01:07;13.77;;;9.53;;
2674;SDS011;1347;42.122;24.746;2023-02-24T02:03:39;20.30;;;9.10;;
2674;SDS011;1347;42.122;24.746;2023-02-24T02:06:09;14.70;;;8.17;;
2674;SDS011;1347;42.122;24.746;2023-02-24T02:08:38;13.63;;;7.63;;
2674;SDS011;1347;42.122;24.746;2023-02-24T02:11:09;13.67;;;8.67;;
2674;SDS011;1347;42.122;24.746;2023-02-24T02:13:38;12.10;;;8.10;;
2674;SDS011;1347;42.122;24.746;2023-02-24T02:16:12;18.87;;;8.60;;
2674;SDS011;1347;42.122;24.746;2023-02-24T02:18:51;18.47;;;9.33;;
2674;SDS011;1347;42.122;24.746;2023-02-24T02:24:44;21.23;;;8.43;;
2674;SDS011;1347;42.122;24.746;2023-02-24T02:30:28;18.80;;;8.00;;
2674;SDS011;1347;42.122;24.746;2023-02-24T02:36:24;23.83;;;9.00;;
2674;SDS011;1347;42.122;24.746;2023-02-24T02:39:00;15.23;;;9.10;;
2674;SDS011;1347;42.122;24.746;2023-02-24T02:41:38;19.70;;;9.50;;
2674;SDS011;1347;42.122;24.746;2023-02-24T02:44:13;19.10;;;8.93;;
2674;SDS011;1347;42.122;24.746;2023-02-24T02:46:47;15.13;;;8.77;;
2674;SDS011;1347;42.122;24.746;2023-02-24T02:49:22;15.57;;;8.60;;
2674;SDS011;1347;42.122;24.746;2023-02-24T02:51:57;18.87;;;9.27;;
2674;SDS011;1347;42.122;24.746;2023-02-24T02:54:32;18.67;;;8.80;;
2674;SDS011;1347;42.122;24.746;2023-02-24T02:57:11;15.37;;;7.20;;
2674;SDS011;1347;42.122;24.746;2023-02-24T02:59:42;19.10;;;9.73;;
2674;SDS011;1347;42.122;24.746;2023-02-24T03:02:14;13.73;;;8.13;;
2674;SDS011;1347;42.122;24.746;2023-02-24T03:04:46;23.23;;;9.90;;
2674;SDS011;1347;42.122;24.746;2023-02-24T03:07:18;13.33;;;8.90;;
2674;SDS011;1347;42.122;24.746;2023-02-24T03:09:48;14.80;;;9.07;;
2674;SDS011;1347;42.122;24.746;2023-02-24T03:12:20;22.57;;;9.47;;
2674;SDS011;1347;42.122;24.746;2023-02-24T03:14:51;17.67;;;9.13;;
2674;SDS011;1347;42.122;24.746;2023-02-24T03:17:23;15.43;;;9.03;;
2674;SDS011;1347;42.122;24.746;2023-02-24T03:19:55;13.77;;;8.50;;
2674;SDS011;1347;42.122;24.746;2023-02-24T03:22:28;15.20;;;9.43;;
2674;SDS011;1347;42.122;24.746;2023-02-24T03:25:00;17.90;;;9.10;;
2674;SDS011;1347;42.122;24.746;2023-02-24T03:27:28;17.43;;;8.90;;
2674;SDS011;1347;42.122;24.746;2023-02-24T03:30:01;16.23;;;10.17;;
2674;SDS011;1347;42.122;24.746;2023-02-24T03:32:35;17.70;;;10.00;;
2674;SDS011;1347;42.122;24.746;2023-02-24T03:35:09;18.10;;;9.43;;
2674;SDS011;1347;42.122;24.746;2023-02-24T03:37:44;17.17;;;9.00;;
2674;SDS011;1347;42.122;24.746;2023-02-24T03:40:12;20.17;;;9.27;;
2674;SDS011;1347;42.122;24.746;2023-02-24T03:42:41;19.70;;;9.53;;
2674;SDS011;1347;42.122;24.746;2023-02-24T03:45:11;19.10;;;8.93;;
2674;SDS011;1347;42.122;24.746;2023-02-24T03:47:40;16.00;;;10.00;;
2674;SDS011;1347;42.122;24.746;2023-02-24T03:50:11;14.83;;;10.00;;
2674;SDS011;1347;42.122;24.746;2023-02-24T03:52:41;16.73;;;10.10;;
2674;SDS011;1347;42.122;24.746;2023-02-24T03:55:20;19.90;;;8.73;;
2674;SDS011;1347;42.122;24.746;2023-02-24T03:58:00;19.00;;;8.70;;
2674;SDS011;1347;42.122;24.746;2023-02-24T04:00:36;18.30;;;9.37;;
2674;SDS011;1347;42.122;24.746;2023-02-24T04:03:09;18.03;;;9.40;;
2674;SDS011;1347;42.122;24.746;2023-02-24T04:05:44;28.40;;;9.47;;
2674;SDS011;1347;42.122;24.746;2023-02-24T04:08:21;13.40;;;9.37;;
2674;SDS011;1347;42.122;24.746;2023-02-24T04:10:56;19.90;;;9.27;;
2674;SDS011;1347;42.122;24.746;2023-02-24T04:13:30;14.43;;;8.43;;
2674;SDS011;1347;42.122;24.746;2023-02-24T04:16:03;14.07;;;7.97;;
2674;SDS011;1347;42.122;24.746;2023-02-24T04:18:41;19.63;;;9.00;;
2674;SDS011;1347;42.122;24.746;2023-02-24T04:21:13;16.77;;;8.17;;
2674;SDS011;1347;42.122;24.746;2023-02-24T04:23:43;11.77;;;8.03;;
2674;SDS011;1347;42.122;24.746;2023-02-24T04:26:12;11.80;;;7.30;;
2674;SDS011;1347;42.122;24.746;2023-02-24T04:28:41;12.40;;;7.60;;
2674;SDS011;1347;42.122;24.746;2023-02-24T04:31:10;13.40;;;7.97;;
2674;SDS011;1347;42.122;24.746;2023-02-24T04:33:42;17.33;;;7.20;;
2674;SDS011;1347;42.122;24.746;2023-02-24T04:36:11;21.60;;;7.53;;
2674;SDS011;1347;42.122;24.746;2023-02-24T04:38:38;12.80;;;8.90;;
2674;SDS011;1347;42.122;24.746;2023-02-24T04:41:06;15.37;;;8.17;;
2674;SDS011;1347;42.122;24.746;2023-02-24T04:43:33;14.43;;;8.30;;
2674;SDS011;1347;42.122;24.746;2023-02-24T04:46:01;19.07;;;9.20;;
2674;SDS011;1347;42.122;24.746;2023-02-24T04:48:31;12.33;;;7.37;;
2674;SDS011;1347;42.122;24.746;2023-02-24T04:50:59;20.97;;;11.50;;
2674;SDS011;1347;42.122;24.746;2023-02-24T04:53:27;20.63;;;10.83;;
2674;SDS011;1347;42.122;24.746;2023-02-24T04:55:54;16.40;;;7.57;;
2674;SDS011;1347;42.122;24.746;2023-02-24T04:58:24;10.27;;;7.50;;
2674;SDS011;1347;42.122;24.746;2023-02-24T05:00:52;15.00;;;9.00;;
2674;SDS011;1347;42.122;24.746;2023-02-24T05:03:21;12.50;;;8.10;;
2674;SDS011;1347;42.122;24.746;2023-02-24T05:05:52;15.17;;;8.40;;
2674;SDS011;1347;42.122;24.746;2023-02-24T05:08:22;21.60;;;7.63;;
2674;SDS011;1347;42.122;24.746;2023-02-24T05:10:50;15.93;;;7.47;;
2674;SDS011;1347;42.122;24.746;2023-02-24T05:13:18;18.53;;;8.00;;
2674;SDS011;1347;42.122;24.746;2023-02-24T05:15:52;15.63;;;7.27;;
2674;SDS011;1347;42.122;24.746;2023-02-24T05:18:20;17.03;;;8.27;;
2674;SDS011;1347;42.122;24.746;2023-02-24T05:20:49;17.67;;;8.97;;
2674;SDS011;1347;42.122;24.746;2023-02-24T05:23:34;18.50;;;8.53;;
2674;SDS011;1347;42.122;24.746;2023-02-24T05:26:05;17.07;;;7.97;;
2674;SDS011;1347;42.122;24.746;2023-02-24T05:28:34;14.57;;;9.77;;
2674;SDS011;1347;42.122;24.746;2023-02-24T05:31:06;14.87;;;8.50;;
2674;SDS011;1347;42.122;24.746;2023-02-24T05:33:35;13.80;;;8.90;;
2674;SDS011;1347;42.122;24.746;2023-02-24T05:36:03;16.17;;;9.80;;
2674;SDS011;1347;42.122;24.746;2023-02-24T05:38:32;20.07;;;10.17;;
2674;SDS011;1347;42.122;24.746;2023-02-24T05:41:04;16.33;;;9.43;;
2674;SDS011;1347;42.122;24.746;2023-02-24T05:43:32;22.00;;;10.73;;
2674;SDS011;1347;42.122;24.746;2023-02-24T05:46:03;21.93;;;9.90;;
2674;SDS011;1347;42.122;24.746;2023-02-24T05:48:32;17.10;;;8.90;;
2674;SDS011;1347;42.122;24.746;2023-02-24T05:51:00;13.93;;;9.27;;
2674;SDS011;1347;42.122;24.746;2023-02-24T05:53:28;17.70;;;10.03;;
2674;SDS011;1347;42.122;24.746;2023-02-24T05:55:55;20.50;;;8.70;;
2674;SDS011;1347;42.122;24.746;2023-02-24T05:58:26;19.77;;;12.00;;
2674;SDS011;1347;42.122;24.746;2023-02-24T06:00:53;15.80;;;9.07;;
2674;SDS011;1347;42.122;24.746;2023-02-24T06:03:22;12.63;;;8.80;;
2674;SDS011;1347;42.122;24.746;2023-02-24T06:05:56;19.07;;;8.20;;
2674;SDS011;1347;42.122;24.746;2023-02-24T06:08:30;17.37;;;8.07;;
2674;SDS011;1347;42.122;24.746;2023-02-24T06:11:07;16.57;;;7.40;;
2674;SDS011;1347;42.122;24.746;2023-02-24T06:13:35;15.83;;;7.80;;
2674;SDS011;1347;42.122;24.746;2023-02-24T06:16:02;12.17;;;6.87;;
2674;SDS011;1347;42.122;24.746;2023-02-24T06:18:30;17.23;;;8.80;;
2674;SDS011;1347;42.122;24.746;2023-02-24T06:21:01;20.60;;;8.40;;
2674;SDS011;1347;42.122;24.746;2023-02-24T06:23:28;17.57;;;7.67;;
2674;SDS011;1347;42.122;24.746;2023-02-24T06:26:00;15.80;;;8.80;;
2674;SDS011;1347;42.122;24.746;2023-02-24T06:28:28;14.20;;;7.73;;
2674;SDS011;1347;42.122;24.746;2023-02-24T06:30:54;16.10;;;8.07;;
2674;SDS011;1347;42.122;24.746;2023-02-24T06:33:21;18.70;;;8.20;;
2674;SDS011;1347;42.122;24.746;2023-02-24T06:35:51;19.30;;;7.40;;
2674;SDS011;1347;42.122;24.746;2023-02-24T06:38:20;16.40;;;7.00;;
2674;SDS011;1347;42.122;24.746;2023-02-24T06:40:46;16.60;;;7.60;;
2674;SDS011;1347;42.122;24.746;2023-02-24T06:43:16;14.17;;;8.00;;
2674;SDS011;1347;42.122;24.746;2023-02-24T06:45:43;21.33;;;8.63;;
2674;SDS011;1347;42.122;24.746;2023-02-24T06:48:10;18.70;;;10.20;;
2674;SDS011;1347;42.122;24.746;2023-02-24T06:50:37;20.30;;;10.37;;
2674;SDS011;1347;42.122;24.746;2023-02-24T06:53:04;25.40;;;8.90;;
2674;SDS011;1347;42.122;24.746;2023-02-24T06:55:42;16.50;;;8.70;;
2674;SDS011;1347;42.122;24.746;2023-02-24T06:58:13;21.53;;;10.00;;
2674;SDS011;1347;42.122;24.746;2023-02-24T07:00:41;26.13;;;13.50;;
2674;SDS011;1347;42.122;24.746;2023-02-24T07:03:21;24.27;;;11.40;;
2674;SDS011;1347;42.122;24.746;2023-02-24T07:05:50;27.10;;;12.23;;
2674;SDS011;1347;42.122;24.746;2023-02-24T07:08:35;23.90;;;11.87;;
2674;SDS011;1347;42.122;24.746;2023-02-24T07:11:04;26.17;;;12.90;;
2674;SDS011;1347;42.122;24.746;2023-02-24T07:13:32;27.10;;;11.87;;
2674;SDS011;1347;42.122;24.746;2023-02-24T07:16:01;32.53;;;13.73;;
2674;SDS011;1347;42.122;24.746;2023-02-24T07:18:31;33.77;;;14.10;;
2674;SDS011;1347;42.122;24.746;2023-02-24T07:21:01;30.90;;;15.20;;
2674;SDS011;1347;42.122;24.746;2023-02-24T07:23:35;31.07;;;12.80;;
2674;SDS011;1347;42.122;24.746;2023-02-24T07:26:07;30.07;;;11.60;;
2674;SDS011;1347;42.122;24.746;2023-02-24T07:28:36;23.03;;;13.83;;
2674;SDS011;1347;42.122;24.746;2023-02-24T07:31:04;24.27;;;13.20;;
2674;SDS011;1347;42.122;24.746;2023-02-24T07:33:33;28.90;;;13.97;;
2674;SDS011;1347;42.122;24.746;2023-02-24T07:36:02;22.07;;;13.10;;
2674;SDS011;1347;42.122;24.746;2023-02-24T07:38:33;27.20;;;14.50;;
2674;SDS011;1347;42.122;24.746;2023-02-24T07:41:01;28.63;;;14.90;;
2674;SDS011;1347;42.122;24.746;2023-02-24T07:43:30;33.50;;;16.07;;
2674;SDS011;1347;42.122;24.746;2023-02-24T07:46:03;28.97;;;13.87;;
2674;SDS011;1347;42.122;24.746;2023-02-24T07:48:32;30.30;;;13.90;;
2674;SDS011;1347;42.122;24.746;2023-02-24T07:50:59;44.97;;;15.17;;
2674;SDS011;1347;42.122;24.746;2023-02-24T07:53:26;29.43;;;13.57;;
2674;SDS011;1347;42.122;24.746;2023-02-24T07:55:53;23.20;;;13.80;;
2674;SDS011;1347;42.122;24.746;2023-02-24T07:58:19;26.33;;;13.17;;
2674;SDS011;1347;42.122;24.746;2023-02-24T08:00:48;21.40;;;13.90;;
2674;SDS011;1347;42.122;24.746;2023-02-24T08:03:25;27.60;;;15.90;;
2674;SDS011;1347;42.122;24.746;2023-02-24T08:05:55;26.97;;;15.47;;
2674;SDS011;1347;42.122;24.746;2023-02-24T08:08:37;33.50;;;16.80;;
2674;SDS011;1347;42.122;24.746;2023-02-24T08:11:22;27.77;;;15.60;;
2674;SDS011;1347;42.122;24.746;2023-02-24T08:13:50;36.30;;;16.37;;
2674;SDS011;1347;42.122;24.746;2023-02-24T08:16:19;29.73;;;15.87;;
2674;SDS011;1347;42.122;24.746;2023-02-24T08:18:47;35.07;;;18.57;;
2674;SDS011;1347;42.122;24.746;2023-02-24T08:21:14;29.37;;;16.10;;
2674;SDS011;1347;42.122;24.746;2023-02-24T08:23:44;34.43;;;18.20;;
2674;SDS011;1347;42.122;24.746;2023-02-24T08:26:12;36.67;;;19.03;;
2674;SDS011;1347;42.122;24.746;2023-02-24T08:28:40;35.40;;;20.30;;
2674;SDS011;1347;42.122;24.746;2023-02-24T08:31:07;41.83;;;20.37;;
2674;SDS011;1347;42.122;24.746;2023-02-24T08:33:38;43.40;;;21.57;;
2674;SDS011;1347;42.122;24.746;2023-02-24T08:36:05;45.17;;;20.90;;
2674;SDS011;1347;42.122;24.746;2023-02-24T08:38:33;45.30;;;21.37;;
2674;SDS011;1347;42.122;24.746;2023-02-24T08:41:12;34.80;;;22.43;;
2674;SDS011;1347;42.122;24.746;2023-02-24T08:43:44;36.83;;;23.63;;
2674;SDS011;1347;42.122;24.746;2023-02-24T08:46:15;35.63;;;20.63;;
2674;SDS011;1347;42.122;24.746;2023-02-24T08:48:47;39.27;;;21.00;;
2674;SDS011;1347;42.122;24.746;2023-02-24T08:51:20;45.93;;;22.93;;
2674;SDS011;1347;42.122;24.746;2023-02-24T08:53:53;41.40;;;20.17;;
2674;SDS011;1347;42.122;24.746;2023-02-24T08:56:22;34.33;;;19.20;;
2674;SDS011;1347;42.122;24.746;2023-02-24T08:58:51;36.17;;;20.20;;
2674;SDS011;1347;42.122;24.746;2023-02-24T09:01:23;33.00;;;19.93;;
2674;SDS011;1347;42.122;24.746;2023-02-24T09:03:54;41.27;;;21.07;;
2674;SDS011;1347;42.122;24.746;2023-02-24T09:06:24;35.17;;;20.87;;
2674;SDS011;1347;42.122;24.746;2023-02-24T09:09:00;34.00;;;20.37;;
2674;SDS011;1347;42.122;24.746;2023-02-24T09:11:43;37.47;;;21.93;;
2674;SDS011;1347;42.122;24.746;2023-02-24T09:14:11;40.40;;;22.50;;
2674;SDS011;1347;42.122;24.746;2023-02-24T09:16:42;36.67;;;22.80;;
2674;SDS011;1347;42.122;24.746;2023-02-24T09:19:31;40.53;;;23.50;;
2674;SDS011;1347;42.122;24.746;2023-02-24T09:22:19;33.90;;;22.97;;
2674;SDS011;1347;42.122;24.746;2023-02-24T09:24:57;34.30;;;21.93;;
2674;SDS011;1347;42.122;24.746;2023-02-24T09:27:46;44.10;;;24.47;;
2674;SDS011;1347;42.122;24.746;2023-02-24T09:30:17;28.77;;;21.87;;
2674;SDS011;1347;42.122;24.746;2023-02-24T09:33:11;44.07;;;24.30;;
2674;SDS011;1347;42.122;24.746;2023-02-24T09:35:51;38.33;;;22.30;;
2674;SDS011;1347;42.122;24.746;2023-02-24T09:38:33;36.23;;;22.63;;
2674;SDS011;1347;42.122;24.746;2023-02-24T09:41:21;39.13;;;23.13;;
2674;SDS011;1347;42.122;24.746;2023-02-24T09:44:01;39.20;;;21.23;;
2674;SDS011;1347;42.122;24.746;2023-02-24T09:46:33;38.90;;;22.17;;
2674;SDS011;1347;42.122;24.746;2023-02-24T09:49:07;37.50;;;20.77;;
2674;SDS011;1347;42.122;24.746;2023-02-24T09:51:42;36.90;;;20.20;;
2674;SDS011;1347;42.122;24.746;2023-02-24T09:54:11;26.27;;;17.87;;
2674;SDS011;1347;42.122;24.746;2023-02-24T09:56:43;39.87;;;21.10;;
2674;SDS011;1347;42.122;24.746;2023-02-24T09:59:33;34.40;;;20.00;;
2674;SDS011;1347;42.122;24.746;2023-02-24T10:02:17;30.40;;;21.70;;
2674;SDS011;1347;42.122;24.746;2023-02-24T10:05:02;35.53;;;21.60;;
2674;SDS011;1347;42.122;24.746;2023-02-24T10:07:41;32.30;;;21.30;;
2674;SDS011;1347;42.122;24.746;2023-02-24T10:10:10;39.30;;;21.70;;
2674;SDS011;1347;42.122;24.746;2023-02-24T10:12:46;38.70;;;23.00;;
2674;SDS011;1347;42.122;24.746;2023-02-24T10:15:17;33.90;;;20.77;;
2674;SDS011;1347;42.122;24.746;2023-02-24T10:18:14;31.73;;;19.97;;
2674;SDS011;1347;42.122;24.746;2023-02-24T10:20:52;34.23;;;20.10;;
2674;SDS011;1347;42.122;24.746;2023-02-24T10:23:26;28.07;;;18.37;;
2674;SDS011;1347;42.122;24.746;2023-02-24T10:26:01;30.23;;;20.20;;
2674;SDS011;1347;42.122;24.746;2023-02-24T10:28:34;36.07;;;22.13;;
2674;SDS011;1347;42.122;24.746;2023-02-24T10:31:09;35.10;;;20.23;;
2674;SDS011;1347;42.122;24.746;2023-02-24T10:33:49;33.27;;;19.93;;
2674;SDS011;1347;42.122;24.746;2023-02-24T10:36:21;27.00;;;20.40;;
2674;SDS011;1347;42.122;24.746;2023-02-24T10:38:56;30.37;;;19.00;;
2674;SDS011;1347;42.122;24.746;2023-02-24T10:41:39;32.73;;;19.73;;
2674;SDS011;1347;42.122;24.746;2023-02-24T10:44:10;30.00;;;19.33;;
2674;SDS011;1347;42.122;24.746;2023-02-24T10:46:40;31.23;;;19.57;;
2674;SDS011;1347;42.122;24.746;2023-02-24T10:49:11;28.67;;;19.60;;
2674;SDS011;1347;42.122;24.746;2023-02-24T10:51:41;28.73;;;20.77;;
2674;SDS011;1347;42.122;24.746;2023-02-24T10:54:14;26.60;;;19.07;;
2674;SDS011;1347;42.122;24.746;2023-02-24T10:56:58;31.63;;;20.63;;
2674;SDS011;1347;42.122;24.746;2023-02-24T10:59:47;28.47;;;20.30;;
2674;SDS011;1347;42.122;24.746;2023-02-24T11:02:35;30.27;;;20.13;;
2674;SDS011;1347;42.122;24.746;2023-02-24T11:05:20;37.63;;;20.10;;
2674;SDS011;1347;42.122;24.746;2023-02-24T11:08:04;25.27;;;16.83;;
2674;SDS011;1347;42.122;24.746;2023-02-24T11:10:37;28.23;;;20.33;;
2674;SDS011;1347;42.122;24.746;2023-02-24T11:13:17;28.90;;;18.50;;
2674;SDS011;1347;42.122;24.746;2023-02-24T11:16:03;28.67;;;17.63;;
2674;SDS011;1347;42.122;24.746;2023-02-24T11:18:51;34.50;;;20.77;;
2674;SDS011;1347;42.122;24.746;2023-02-24T11:21:21;30.57;;;19.63;;
2674;SDS011;1347;42.122;24.746;2023-02-24T11:23:51;25.77;;;17.77;;
2674;SDS011;1347;42.122;24.746;2023-02-24T11:26:23;28.40;;;18.50;;
2674;SDS011;1347;42.122;24.746;2023-02-24T11:28:57;25.70;;;19.40;;
2674;SDS011;1347;42.122;24.746;2023-02-24T11:31:49;29.40;;;19.27;;
2674;SDS011;1347;42.122;24.746;2023-02-24T11:34:26;28.07;;;20.67;;
2674;SDS011;1347;42.122;24.746;2023-02-24T11:37:04;23.43;;;17.47;;
2674;SDS011;1347;42.122;24.746;2023-02-24T11:39:47;27.93;;;17.90;;
2674;SDS011;1347;42.122;24.746;2023-02-24T11:42:23;33.70;;;19.33;;
2674;SDS011;1347;42.122;24.746;2023-02-24T11:44:53;27.67;;;17.07;;
2674;SDS011;1347;42.122;24.746;2023-02-24T11:47:25;24.47;;;16.87;;
2674;SDS011;1347;42.122;24.746;2023-02-24T11:50:04;27.97;;;20.47;;
2674;SDS011;1347;42.122;24.746;2023-02-24T11:52:43;29.37;;;19.60;;
2674;SDS011;1347;42.122;24.746;2023-02-24T11:55:13;27.60;;;18.73;;
2674;SDS011;1347;42.122;24.746;2023-02-24T11:57:52;32.23;;;21.10;;
2674;SDS011;1347;42.122;24.746;2023-02-24T12:00:22;29.60;;;20.57;;
2674;SDS011;1347;42.122;24.746;2023-02-24T12:02:53;28.37;;;20.77;;
2674;SDS011;1347;42.122;24.746;2023-02-24T12:05:26;29.77;;;20.43;;
2674;SDS011;1347;42.122;24.746;2023-02-24T12:08:02;28.97;;;21.00;;
2674;SDS011;1347;42.122;24.746;2023-02-24T12:10:37;31.67;;;22.67;;
2674;SDS011;1347;42.122;24.746;2023-02-24T12:13:15;34.33;;;22.13;;
2674;SDS011;1347;42.122;24.746;2023-02-24T12:15:47;36.53;;;21.67;;
2674;SDS011;1347;42.122;24.746;2023-02-24T12:18:22;32.63;;;22.20;;
2674;SDS011;1347;42.122;24.746;2023-02-24T12:20:53;31.47;;;21.03;;
2674;SDS011;1347;42.122;24.746;2023-02-24T12:23:25;31.13;;;21.03;;
2674;SDS011;1347;42.122;24.746;2023-02-24T12:26:01;33.43;;;21.67;;
2674;SDS011;1347;42.122;24.746;2023-02-24T12:31:35;28.00;;;22.10;;
2674;SDS011;1347;42.122;24.746;2023-02-24T12:34:20;32.90;;;23.87;;
2674;SDS011;1347;42.122;24.746;2023-02-24T12:37:09;37.67;;;23.37;;
2674;SDS011;1347;42.122;24.746;2023-02-24T12:39:49;27.07;;;21.93;;
2674;SDS011;1347;42.122;24.746;2023-02-24T12:42:25;29.90;;;21.30;;
2674;SDS011;1347;42.122;24.746;2023-02-24T12:45:01;27.60;;;20.67;;
2674;SDS011;1347;42.122;24.746;2023-02-24T12:47:37;30.90;;;21.13;;
2674;SDS011;1347;42.122;24.746;2023-02-24T12:50:14;26.07;;;21.53;;
2674;SDS011;1347;42.122;24.746;2023-02-24T12:52:56;28.23;;;21.13;;
2674;SDS011;1347;42.122;24.746;2023-02-24T12:55:33;25.40;;;21.70;;
2674;SDS011;1347;42.122;24.746;2023-02-24T12:58:05;28.63;;;22.03;;
2674;SDS011;1347;42.122;24.746;2023-02-24T13:00:41;23.67;;;18.73;;
2674;SDS011;1347;42.122;24.746;2023-02-24T13:03:25;24.47;;;20.10;;
2674;SDS011;1347;42.122;24.746;2023-02-24T13:06:05;27.30;;;22.67;;
2674;SDS011;1347;42.122;24.746;2023-02-24T13:08:42;26.07;;;23.37;;
2674;SDS011;1347;42.122;24.746;2023-02-24T13:11:19;25.30;;;22.70;;
2674;SDS011;1347;42.122;24.746;2023-02-24T13:13:54;23.83;;;21.17;;
2674;SDS011;1347;42.122;24.746;2023-02-24T13:16:30;24.57;;;21.93;;
2674;SDS011;1347;42.122;24.746;2023-02-24T13:19:04;30.57;;;23.63;;
2674;SDS011;1347;42.122;24.746;2023-02-24T13:21:42;25.80;;;22.37;;
2674;SDS011;1347;42.122;24.746;2023-02-24T13:24:20;22.57;;;20.03;;
2674;SDS011;1347;42.122;24.746;2023-02-24T13:26:49;28.03;;;21.07;;
2674;SDS011;1347;42.122;24.746;2023-02-24T13:29:16;26.30;;;22.10;;
2674;SDS011;1347;42.122;24.746;2023-02-24T13:31:46;29.90;;;24.93;;
2674;SDS011;1347;42.122;24.746;2023-02-24T13:34:26;29.47;;;26.33;;
2674;SDS011;1347;42.122;24.746;2023-02-24T13:36:56;27.13;;;24.10;;
2674;SDS011;1347;42.122;24.746;2023-02-24T13:39:23;29.73;;;25.30;;
2674;SDS011;1347;42.122;24.746;2023-02-24T13:42:00;25.67;;;23.00;;
2674;SDS011;1347;42.122;24.746;2023-02-24T13:44:29;31.73;;;25.30;;
2674;SDS011;1347;42.122;24.746;2023-02-24T13:50:18;30.50;;;25.33;;
2674;SDS011;1347;42.122;24.746;2023-02-24T13:52:52;29.77;;;24.33;;
2674;SDS011;1347;42.122;24.746;2023-02-24T13:55:33;25.87;;;22.40;;
2674;SDS011;1347;42.122;24.746;2023-02-24T13:58:27;27.77;;;22.97;;
2674;SDS011;1347;42.122;24.746;2023-02-24T14:01:10;21.77;;;19.37;;
2674;SDS011;1347;42.122;24.746;2023-02-24T14:03:39;23.93;;;19.90;;
2674;SDS011;1347;42.122;24.746;2023-02-24T14:06:14;27.10;;;22.17;;
2674;SDS011;1347;42.122;24.746;2023-02-24T14:08:48;28.50;;;22.93;;
2674;SDS011;1347;42.122;24.746;2023-02-24T14:11:18;25.83;;;20.20;;
2674;SDS011;1347;42.122;24.746;2023-02-24T14:13:50;26.17;;;23.27;;
2674;SDS011;1347;42.122;24.746;2023-02-24T14:16:20;25.93;;;21.37;;
2674;SDS011;1347;42.122;24.746;2023-02-24T14:18:51;26.27;;;20.73;;
2674;SDS011;1347;42.122;24.746;2023-02-24T14:21:22;29.00;;;21.00;;
2674;SDS011;1347;42.122;24.746;2023-02-24T14:23:54;27.30;;;21.90;;
2674;SDS011;1347;42.122;24.746;2023-02-24T14:26:22;29.37;;;22.67;;
2674;SDS011;1347;42.122;24.746;2023-02-24T14:28:51;27.60;;;21.70;;
2674;SDS011;1347;42.122;24.746;2023-02-24T14:31:21;25.17;;;21.40;;
2674;SDS011;1347;42.122;24.746;2023-02-24T14:33:52;27.93;;;21.33;;
2674;SDS011;1347;42.122;24.746;2023-02-24T14:36:25;26.20;;;20.80;;
2674;SDS011;1347;42.122;24.746;2023-02-24T14:38:59;26.40;;;21.87;;
2674;SDS011;1347;42.122;24.746;2023-02-24T14:41:29;28.57;;;21.20;;
2674;SDS011;1347;42.122;24.746;2023-02-24T14:43:55;24.53;;;21.10;;
2674;SDS011;1347;42.122;24.746;2023-02-24T14:46:22;26.50;;;20.07;;
2674;SDS011;1347;42.122;24.746;2023-02-24T14:48:53;27.57;;;21.77;;
2674;SDS011;1347;42.122;24.746;2023-02-24T14:51:22;30.03;;;22.87;;
2674;SDS011;1347;42.122;24.746;2023-02-24T14:53:56;29.70;;;23.70;;
2674;SDS011;1347;42.122;24.746;2023-02-24T14:56:28;30.83;;;23.73;;
2674;SDS011;1347;42.122;24.746;2023-02-24T14:58:58;28.13;;;23.23;;
2674;SDS011;1347;42.122;24.746;2023-02-24T15:01:29;29.03;;;21.90;;
2674;SDS011;1347;42.122;24.746;2023-02-24T15:04:00;29.03;;;22.83;;
2674;SDS011;1347;42.122;24.746;2023-02-24T15:06:39;33.80;;;24.53;;
2674;SDS011;1347;42.122;24.746;2023-02-24T15:09:10;32.23;;;22.97;;
2674;SDS011;1347;42.122;24.746;2023-02-24T15:11:41;31.50;;;24.73;;
2674;SDS011;1347;42.122;24.746;2023-02-24T15:14:14;29.70;;;23.10;;
2674;SDS011;1347;42.122;24.746;2023-02-24T15:16:47;32.13;;;21.60;;
2674;SDS011;1347;42.122;24.746;2023-02-24T15:19:23;30.47;;;23.90;;
2674;SDS011;1347;42.122;24.746;2023-02-24T15:21:53;30.03;;;22.43;;
2674;SDS011;1347;42.122;24.746;2023-02-24T15:24:23;30.33;;;24.10;;
2674;SDS011;1347;42.122;24.746;2023-02-24T15:26:53;35.40;;;24.20;;